createdAt,value
2019-04-05T00:00:47.963Z,85.63
2019-04-05T00:03:53.118Z,86.28
2019-04-05T00:06:58.224Z,85.84
2019-04-05T00:10:03.433Z,85.76
2019-04-05T00:13:09.201Z,86.23
2019-04-05T00:16:14.538Z,87.15
2019-04-05T00:19:19.750Z,86.69
2019-04-05T00:22:24.987Z,85.09
2019-04-05T00:25:30.229Z,85.39
2019-04-05T00:28:35.620Z,86.32
2019-04-05T00:31:40.967Z,86.79
2019-04-05T00:34:46.218Z,86.27
2019-04-05T00:37:51.411Z,85.53
2019-04-05T00:40:56.874Z,85.89
2019-04-05T00:44:02.154Z,86.81
2019-04-05T00:47:07.502Z,86.90
2019-04-05T00:50:13.901Z,86.39
2019-04-05T00:53:19.032Z,86.91
2019-04-05T00:56:24.230Z,86.86
2019-04-05T00:59:29.531Z,86.85
2019-04-05T01:02:35.037Z,86.91
2019-04-05T01:05:40.166Z,87.09
2019-04-05T01:08:45.305Z,87.69
2019-04-05T01:11:50.533Z,87.34
2019-04-05T01:14:56.537Z,87.51
2019-04-05T01:18:01.982Z,86.64
2019-04-05T01:21:09.054Z,86.63
2019-04-05T01:24:15.538Z,85.77
2019-04-05T01:27:22.281Z,85.79
2019-04-05T01:30:27.435Z,85.70
2019-04-05T01:33:32.948Z,86.34
2019-04-05T01:36:38.128Z,86.53
2019-04-05T01:39:43.395Z,86.41
2019-04-05T01:42:48.756Z,86.22
2019-04-05T01:45:55.919Z,86.36
2019-04-05T01:49:03.382Z,86.36
2019-04-05T01:52:08.774Z,86.48
2019-04-05T01:55:14.702Z,86.50
2019-04-05T01:58:20.029Z,84.98
2019-04-05T02:01:25.132Z,85.26
2019-04-05T02:04:30.254Z,85.15
2019-04-05T02:07:35.714Z,85.58
2019-04-05T02:10:41.027Z,85.78
2019-04-05T02:13:46.145Z,85.91
2019-04-05T02:16:51.427Z,86.36
2019-04-05T02:19:56.699Z,86.13
2019-04-05T02:23:01.954Z,85.81
2019-04-05T02:26:07.160Z,85.43
2019-04-05T02:29:12.399Z,85.34
2019-04-05T02:32:17.540Z,85.09
2019-04-05T02:35:22.934Z,85.61
2019-04-05T02:38:28.195Z,84.08
2019-04-05T02:41:34.198Z,85.76
2019-04-05T02:44:41.050Z,86.49
2019-04-05T02:47:51.893Z,86.21
2019-04-05T02:51:00.198Z,86.20
2019-04-05T02:54:06.186Z,86.69
2019-04-05T02:57:12.320Z,85.76
2019-04-05T03:00:17.653Z,85.00
2019-04-05T03:03:23.054Z,85.02
2019-04-05T03:06:28.371Z,86.04
2019-04-05T03:09:34.388Z,86.47
2019-04-05T03:12:40.100Z,86.27
2019-04-05T03:15:45.675Z,87.05
2019-04-05T03:18:57.833Z,86.88
2019-04-05T03:22:06.086Z,86.86
2019-04-05T03:25:11.574Z,86.79
2019-04-05T03:28:17.049Z,86.88
2019-04-05T03:31:25.026Z,86.83
2019-04-05T03:34:29.343Z,86.60
2019-04-05T03:37:35.050Z,87.06
2019-04-05T03:40:40.172Z,86.54
2019-04-05T03:43:46.803Z,85.77
2019-04-05T03:46:57.183Z,86.68
2019-04-05T03:50:01.214Z,86.66
2019-04-05T03:53:07.036Z,86.34
2019-04-05T03:56:12.592Z,86.42
2019-04-05T03:59:18.124Z,86.74
2019-04-05T04:02:23.732Z,86.47
2019-04-05T04:05:29.301Z,87.38
2019-04-05T04:08:34.615Z,87.77
2019-04-05T04:11:39.930Z,87.75
2019-04-05T04:14:45.488Z,87.54
2019-04-05T04:17:50.930Z,87.92
2019-04-05T04:20:59.521Z,87.37
2019-04-05T04:24:05.166Z,86.88
2019-04-05T04:27:10.393Z,87.14
2019-04-05T04:30:16.293Z,87.41
2019-04-05T04:33:21.624Z,87.45
2019-04-05T04:36:27.177Z,86.75
2019-04-05T04:39:33.842Z,86.51
2019-04-05T04:42:39.114Z,86.67
2019-04-05T04:45:44.545Z,87.28
2019-04-05T04:48:49.968Z,88.19
2019-04-05T04:51:55.408Z,88.22
2019-04-05T04:55:00.675Z,88.55
2019-04-05T04:58:06.394Z,88.84
2019-04-05T05:01:11.520Z,89.16
2019-04-05T05:04:17.155Z,89.19
2019-04-05T05:07:22.302Z,89.80
2019-04-05T05:10:27.677Z,90.45
2019-04-05T05:13:34.266Z,89.51
2019-04-05T05:16:39.569Z,89.67
2019-04-05T05:19:45.143Z,90.10
2019-04-05T05:22:50.369Z,90.84
2019-04-05T05:25:55.695Z,90.44
2019-04-05T05:29:01.031Z,89.08
2019-04-05T05:32:09.582Z,90.01
2019-04-05T05:35:13.659Z,88.85
2019-04-05T05:38:19.107Z,88.65
2019-04-05T05:41:24.328Z,88.27
2019-04-05T05:44:30.736Z,88.89
2019-04-05T05:47:37.113Z,89.54
2019-04-05T05:50:42.593Z,89.41
2019-04-05T05:53:48.157Z,89.18
2019-04-05T05:56:53.368Z,88.33
2019-04-05T06:00:00.601Z,89.61
2019-04-05T06:03:06.414Z,90.75
2019-04-05T06:06:11.538Z,90.46
2019-04-05T06:09:16.847Z,88.69
2019-04-05T06:12:22.063Z,88.99
2019-04-05T06:15:27.342Z,90.28
2019-04-05T06:18:32.487Z,89.62
2019-04-05T06:21:37.590Z,90.30
2019-04-05T06:24:42.840Z,90.61
2019-04-05T06:27:48.051Z,91.02
2019-04-05T06:30:53.341Z,90.62
2019-04-05T06:33:59.584Z,90.37
2019-04-05T06:37:04.733Z,90.30
2019-04-05T06:40:09.943Z,90.16
2019-04-05T06:43:15.227Z,89.88
2019-04-05T06:46:20.453Z,90.18
2019-04-05T06:49:25.601Z,89.38
2019-04-05T06:52:30.820Z,88.23
2019-04-05T06:55:36.281Z,87.79
2019-04-05T06:58:41.392Z,87.76
2019-04-05T07:01:46.567Z,88.81
2019-04-05T07:04:51.806Z,89.31
2019-04-05T07:07:57.082Z,90.00
2019-04-05T07:11:02.329Z,90.11
2019-04-05T07:14:07.458Z,89.64
2019-04-05T07:17:12.610Z,88.00
2019-04-05T07:20:18.031Z,87.51
2019-04-05T07:23:23.411Z,87.91
2019-04-05T07:26:28.556Z,89.43
2019-04-05T07:29:33.754Z,90.01
2019-04-05T07:32:38.851Z,89.55
2019-04-05T07:35:44.074Z,86.56
2019-04-05T07:38:49.289Z,85.62
2019-04-05T07:41:54.426Z,85.53
2019-04-05T07:44:59.553Z,86.29
2019-04-05T07:48:04.772Z,85.17
2019-04-05T07:51:09.975Z,85.97
2019-04-05T07:54:15.067Z,86.32
2019-04-05T07:57:20.429Z,85.20
2019-04-05T08:01:00.059Z,85.03
2019-04-05T08:04:05.569Z,84.86
2019-04-05T08:07:11.473Z,84.72
2019-04-05T08:10:16.904Z,85.37
2019-04-05T08:13:24.241Z,84.58
2019-04-05T08:16:30.673Z,84.01
2019-04-05T08:19:35.947Z,83.54
2019-04-05T08:22:41.168Z,82.59
2019-04-05T08:25:46.408Z,81.90
2019-04-05T08:28:51.549Z,81.45
2019-04-05T08:31:56.694Z,81.17
2019-04-05T08:35:01.854Z,81.53
2019-04-05T08:38:07.015Z,81.70
2019-04-05T08:41:12.170Z,83.45
2019-04-05T08:44:17.353Z,81.13
2019-04-05T08:47:22.747Z,82.33
2019-04-05T08:50:28.017Z,83.21
2019-04-05T08:53:33.160Z,81.57
2019-04-05T08:56:38.337Z,81.43
2019-04-05T08:59:43.536Z,82.07
2019-04-05T09:02:49.333Z,81.32
2019-04-05T09:44:25.700Z,76.83
2019-04-05T09:47:30.819Z,77.45
2019-04-05T09:50:36.067Z,76.25
2019-04-05T09:53:41.262Z,76.33
2019-04-05T09:56:46.455Z,75.55
2019-04-05T09:59:51.541Z,76.62
2019-04-05T10:02:56.722Z,75.17
2019-04-05T10:06:03.162Z,75.58
2019-04-05T10:09:09.177Z,73.43
2019-04-05T10:12:14.341Z,73.36
2019-04-05T10:15:21.738Z,75.39
2019-04-05T10:18:26.524Z,75.90
2019-04-05T10:21:31.723Z,75.64
2019-04-05T10:24:36.872Z,72.06
2019-04-05T10:27:42.154Z,73.45
2019-04-05T10:30:47.484Z,72.96
2019-04-05T10:33:52.632Z,73.79
2019-04-05T10:36:57.765Z,74.66
2019-04-05T10:40:02.943Z,75.54
2019-04-05T10:43:08.317Z,73.31
2019-04-05T10:46:13.512Z,71.44
2019-04-05T10:49:18.741Z,70.81
2019-04-05T10:52:23.967Z,70.51
2019-04-05T10:55:29.030Z,70.26
2019-04-05T10:58:34.207Z,69.32
2019-04-05T13:57:40.888Z,75.72
2019-04-05T14:00:48.317Z,75.87
2019-04-05T14:08:10.299Z,74.11
2019-04-05T14:11:13.530Z,74.56
2019-04-05T14:14:18.738Z,73.73
2019-04-05T14:17:24.127Z,73.76
2019-04-05T14:20:29.295Z,73.78
2019-04-05T14:23:34.455Z,73.76
2019-04-05T14:26:39.661Z,73.64
2019-04-05T14:29:47.562Z,74.28
2019-04-05T14:46:12.612Z,75.70
2019-04-05T14:49:17.837Z,75.69
2019-04-05T14:52:25.503Z,75.09
2019-04-05T14:55:30.583Z,75.17
2019-04-05T14:58:35.867Z,75.00
2019-04-05T15:01:41.072Z,75.41
2019-04-05T15:04:46.218Z,74.98
2019-04-05T15:07:52.027Z,75.33
2019-04-05T15:10:58.313Z,75.39
2019-04-05T15:14:03.558Z,75.31
2019-04-05T15:17:08.745Z,75.88
2019-04-05T15:20:14.426Z,75.05
2019-04-05T15:23:19.610Z,74.65
2019-04-05T15:26:24.866Z,75.47
2019-04-05T15:29:30.956Z,76.26
2019-04-05T15:32:37.265Z,75.82
2019-04-05T15:35:42.425Z,76.22
2019-04-05T15:38:47.692Z,76.53
2019-04-05T15:41:52.907Z,76.31
2019-04-05T15:44:58.145Z,75.98
2019-04-05T15:48:03.383Z,76.23
2019-04-05T15:51:08.667Z,75.67
2019-04-05T15:54:13.917Z,76.02
2019-04-05T15:57:19.123Z,75.66
2019-04-05T16:00:40.452Z,75.28
2019-04-05T16:03:45.692Z,75.64
2019-04-05T16:06:50.912Z,75.73
2019-04-05T16:09:56.102Z,75.96
2019-04-05T16:13:01.339Z,77.55
2019-04-05T16:16:06.542Z,76.77
2019-04-05T16:19:11.727Z,76.69
2019-04-05T16:22:16.938Z,76.02
2019-04-05T16:25:22.184Z,76.20
2019-04-05T16:28:27.405Z,76.78
2019-04-05T16:31:32.839Z,77.17
2019-04-05T16:34:38.099Z,77.08
2019-04-05T16:37:43.340Z,76.82
2019-04-05T16:40:48.636Z,77.83
2019-04-05T16:43:53.841Z,78.37
2019-04-05T16:46:59.145Z,79.00
2019-04-05T16:50:04.886Z,78.80
2019-04-05T16:53:10.081Z,79.34
2019-04-05T16:56:15.302Z,78.83
2019-04-05T16:59:20.583Z,79.14
2019-04-05T17:02:25.831Z,78.86
2019-04-05T17:05:32.058Z,78.75
2019-04-05T17:08:37.323Z,78.90
2019-04-05T17:11:42.413Z,78.62
2019-04-05T17:14:48.186Z,78.58
2019-04-05T17:17:53.453Z,78.31
2019-04-05T17:20:58.707Z,78.73
2019-04-05T17:24:03.888Z,79.57
2019-04-05T17:27:09.125Z,79.29
2019-04-05T17:30:14.545Z,79.52
2019-04-05T17:33:19.742Z,79.21
2019-04-05T17:36:25.006Z,79.73
2019-04-05T17:39:30.219Z,81.04
2019-04-05T17:42:35.366Z,81.00
2019-04-05T17:45:40.507Z,81.30
2019-04-05T17:48:45.714Z,81.23
2019-04-05T17:51:50.980Z,80.91
2019-04-05T17:54:56.109Z,81.57
2019-04-05T17:58:02.950Z,81.64
2019-04-05T18:01:08.139Z,81.10
2019-04-05T18:04:13.310Z,81.00
2019-04-05T18:07:18.533Z,81.08
2019-04-05T18:10:24.890Z,81.47
2019-04-05T18:13:30.008Z,82.06
2019-04-05T18:16:35.280Z,82.60
2019-04-05T18:19:40.504Z,83.43
2019-04-05T18:22:45.767Z,83.04
2019-04-05T18:25:51.052Z,81.87
2019-04-05T18:28:56.235Z,81.90
2019-04-05T18:32:01.503Z,82.36
2019-04-05T18:35:07.957Z,83.45
2019-04-05T18:38:13.228Z,83.40
2019-04-05T18:41:18.382Z,83.79
2019-04-05T18:44:23.762Z,84.60
2019-04-05T18:47:28.980Z,85.83
2019-04-05T18:50:34.236Z,86.18
2019-04-05T18:53:39.456Z,86.36
2019-04-05T18:56:44.648Z,86.00
2019-04-05T18:59:49.835Z,86.43
2019-04-05T19:02:55.112Z,87.07
2019-04-05T19:06:00.300Z,87.27
2019-04-05T19:09:07.417Z,87.30
2019-04-05T19:12:14.204Z,86.38
2019-04-05T19:15:19.451Z,86.66
2019-04-05T19:18:24.700Z,86.36
2019-04-05T19:21:29.953Z,86.20
2019-04-05T19:24:35.082Z,86.20
2019-04-05T19:27:40.396Z,85.82
2019-04-05T19:49:30.969Z,87.19
2019-04-05T19:52:36.087Z,86.81
2019-04-05T19:55:41.324Z,86.80
2019-04-05T19:58:46.514Z,87.20
2019-04-05T20:01:51.677Z,87.93
2019-04-05T20:04:56.942Z,88.11
2019-04-05T20:08:02.172Z,87.36
2019-04-05T20:11:07.449Z,87.29
2019-04-05T20:14:12.612Z,88.27
2019-04-05T20:17:17.887Z,87.98
2019-04-05T20:20:23.075Z,88.51
2019-04-05T20:23:28.387Z,88.64
2019-04-05T20:26:33.559Z,88.70
2019-04-05T20:29:38.829Z,89.34
2019-04-05T20:32:44.124Z,89.66
2019-04-05T20:35:49.491Z,90.14
2019-04-05T20:38:54.629Z,89.82
2019-04-05T20:41:59.914Z,89.60
2019-04-05T20:45:06.304Z,90.61
2019-04-05T20:48:11.445Z,90.93
2019-04-05T20:51:16.522Z,91.38
2019-04-05T20:54:24.798Z,91.72
2019-04-05T20:57:28.626Z,91.65
2019-04-05T21:00:33.746Z,91.61
2019-04-05T21:03:38.933Z,91.35
2019-04-05T21:06:44.284Z,91.02
2019-04-05T21:09:49.768Z,91.33
2019-04-05T21:12:54.972Z,91.44
2019-04-05T21:16:00.193Z,91.58
2019-04-05T21:19:05.417Z,91.69
2019-04-05T21:22:10.588Z,91.58
2019-04-05T21:25:15.772Z,91.70
2019-04-05T21:28:20.964Z,91.75
2019-04-05T21:31:26.249Z,91.86
2019-04-05T21:34:31.460Z,91.76
2019-04-05T21:37:36.639Z,92.35
2019-04-05T21:40:41.773Z,92.64
2019-04-05T21:43:47.122Z,92.47
2019-04-05T21:46:52.376Z,92.18
2019-04-05T21:49:57.631Z,92.30
2019-04-05T21:53:02.792Z,92.37
2019-04-05T21:56:11.868Z,92.50
2019-04-05T21:59:18.661Z,92.37
2019-04-05T22:02:23.831Z,92.08
2019-04-05T22:05:29.053Z,91.25
2019-04-05T22:08:34.311Z,90.72
2019-04-05T22:11:39.487Z,91.08
2019-04-05T22:14:44.659Z,91.29
2019-04-05T22:17:49.786Z,91.22
2019-04-05T22:20:55.021Z,90.64
2019-04-05T22:24:00.225Z,90.86
2019-04-05T22:27:05.428Z,91.48
2019-04-05T22:30:11.347Z,91.83
2019-04-05T22:33:16.563Z,92.24
2019-04-05T22:36:21.744Z,92.55
2019-04-05T22:39:26.905Z,92.41
2019-04-05T22:42:32.051Z,91.99
2019-04-05T22:45:37.355Z,92.15
2019-04-05T22:48:42.523Z,92.17
2019-04-05T22:51:47.672Z,91.40
2019-04-05T22:54:52.822Z,91.15
2019-04-05T22:57:58.054Z,91.16
2019-04-05T23:01:03.205Z,91.12
2019-04-05T23:04:08.523Z,91.45
2019-04-05T23:07:13.694Z,91.46
2019-04-05T23:10:18.796Z,91.21
2019-04-05T23:13:23.981Z,91.59
2019-04-05T23:16:30.150Z,91.46
2019-04-05T23:19:35.377Z,90.28
2019-04-05T23:22:40.569Z,90.23
2019-04-05T23:25:45.785Z,90.34
2019-04-05T23:28:50.930Z,90.59
2019-04-05T23:31:56.228Z,90.24
2019-04-05T23:35:01.470Z,90.27
2019-04-05T23:38:06.589Z,90.74
2019-04-05T23:41:11.732Z,90.34
2019-04-05T23:44:16.881Z,90.47
2019-04-05T23:47:22.222Z,90.59
2019-04-05T23:50:27.463Z,91.38
2019-04-05T23:53:32.589Z,91.75
2019-04-05T23:56:37.821Z,91.96
2019-04-05T23:59:43.087Z,91.79
